sensor_id;sensor_type;location;lat;lon;timestamp;pressure;altitude;pressure_sealevel;temperature;humidity
46347;BME280;32057;47.830;19.046;2023-09-19T00:01:07;99629.28;;;22.01;100.00
46347;BME280;32057;47.830;19.046;2023-09-19T00:03:34;99633.66;;;22.02;100.00
46347;BME280;32057;47.830;19.046;2023-09-19T00:06:05;99627.50;;;22.02;100.00
46347;BME280;32057;47.830;19.046;2023-09-19T00:08:33;99631.81;;;22.04;99.80
46347;BME280;32057;47.830;19.046;2023-09-19T00:10:58;99621.16;;;22.06;99.65
46347;BME280;32057;47.830;19.046;2023-09-19T00:13:29;99634.34;;;22.07;99.69
46347;BME280;32057;47.830;19.046;2023-09-19T00:15:56;99629.00;;;22.09;99.49
46347;BME280;32057;47.830;19.046;2023-09-19T00:18:24;99622.97;;;22.05;100.00
46347;BME280;32057;47.830;19.046;2023-09-19T00:20:59;99622.97;;;22.05;99.57
46347;BME280;32057;47.830;19.046;2023-09-19T00:23:25;99616.81;;;22.05;99.70
46347;BME280;32057;47.830;19.046;2023-09-19T00:25:53;99618.56;;;22.04;99.89
46347;BME280;32057;47.830;19.046;2023-09-19T00:28:22;99616.06;;;22.01;100.00
46347;BME280;32057;47.830;19.046;2023-09-19T00:30:48;99626.66;;;22.01;100.00
46347;BME280;32057;47.830;19.046;2023-09-19T00:33:15;99616.97;;;22.00;100.00
46347;BME280;32057;47.830;19.046;2023-09-19T00:35:52;99624.09;;;21.98;100.00
46347;BME280;32057;47.830;19.046;2023-09-19T00:38:18;99617.19;;;21.94;100.00
46347;BME280;32057;47.830;19.046;2023-09-19T00:40:50;99619.41;;;21.83;100.00
46347;BME280;32057;47.830;19.046;2023-09-19T00:43:18;99626.06;;;21.70;100.00
46347;BME280;32057;47.830;19.046;2023-09-19T00:45:46;99626.91;;;21.70;100.00
46347;BME280;32057;47.830;19.046;2023-09-19T00:48:13;99636.66;;;21.70;100.00
46347;BME280;32057;47.830;19.046;2023-09-19T00:50:41;99639.47;;;21.65;100.00
46347;BME280;32057;47.830;19.046;2023-09-19T00:53:07;99639.97;;;21.51;100.00
46347;BME280;32057;47.830;19.046;2023-09-19T00:55:38;99646.47;;;21.41;100.00
46347;BME280;32057;47.830;19.046;2023-09-19T00:58:05;99653.31;;;21.21;100.00
46347;BME280;32057;47.830;19.046;2023-09-19T01:00:35;99643.16;;;21.09;100.00
46347;BME280;32057;47.830;19.046;2023-09-19T01:03:05;99644.38;;;20.99;100.00
46347;BME280;32057;47.830;19.046;2023-09-19T01:05:34;99631.25;;;20.96;100.00
46347;BME280;32057;47.830;19.046;2023-09-19T01:08:01;99634.81;;;20.95;100.00
46347;BME280;32057;47.830;19.046;2023-09-19T01:10:26;99636.81;;;20.88;100.00
46347;BME280;32057;47.830;19.046;2023-09-19T01:15:53;99640.47;;;20.84;100.00
46347;BME280;32057;47.830;19.046;2023-09-19T01:21:01;99644.56;;;20.66;100.00
46347;BME280;32057;47.830;19.046;2023-09-19T01:23:46;99631.50;;;20.61;100.00
46347;BME280;32057;47.830;19.046;2023-09-19T01:26:34;99630.69;;;20.59;100.00
46347;BME280;32057;47.830;19.046;2023-09-19T01:29:34;99626.63;;;20.47;100.00
46347;BME280;32057;47.830;19.046;2023-09-19T01:32:05;99624.25;;;20.38;100.00
46347;BME280;32057;47.830;19.046;2023-09-19T01:34:51;99623.38;;;20.39;100.00
46347;BME280;32057;47.830;19.046;2023-09-19T01:37:21;99623.28;;;20.41;100.00
46347;BME280;32057;47.830;19.046;2023-09-19T01:40:03;99618.91;;;20.41;100.00
46347;BME280;32057;47.830;19.046;2023-09-19T01:48:05;99629.88;;;20.27;100.00
46347;BME280;32057;47.830;19.046;2023-09-19T01:50:51;99619.50;;;20.21;100.00
46347;BME280;32057;47.830;19.046;2023-09-19T01:53:30;99619.44;;;20.23;100.00
46347;BME280;32057;47.830;19.046;2023-09-19T01:55:59;99618.59;;;20.22;100.00
46347;BME280;32057;47.830;19.046;2023-09-19T01:58:33;99615.97;;;20.21;100.00
46347;BME280;32057;47.830;19.046;2023-09-19T02:01:00;99612.72;;;20.13;100.00
46347;BME280;32057;47.830;19.046;2023-09-19T02:03:27;99601.09;;;20.18;100.00
46347;BME280;32057;47.830;19.046;2023-09-19T02:05:54;99604.34;;;19.98;100.00
46347;BME280;32057;47.830;19.046;2023-09-19T02:08:21;99599.19;;;19.95;100.00
46347;BME280;32057;47.830;19.046;2023-09-19T02:10:53;99600.66;;;20.04;100.00
46347;BME280;32057;47.830;19.046;2023-09-19T02:13:19;99601.72;;;19.98;100.00
46347;BME280;32057;47.830;19.046;2023-09-19T02:15:45;99601.84;;;19.94;100.00
46347;BME280;32057;47.830;19.046;2023-09-19T02:18:11;99609.03;;;19.88;100.00
46347;BME280;32057;47.830;19.046;2023-09-19T02:20:46;99618.75;;;19.88;100.00
46347;BME280;32057;47.830;19.046;2023-09-19T02:23:12;99606.69;;;19.79;100.00
46347;BME280;32057;47.830;19.046;2023-09-19T02:25:39;99609.25;;;19.81;100.00
46347;BME280;32057;47.830;19.046;2023-09-19T02:28:06;99612.63;;;19.86;100.00
46347;BME280;32057;47.830;19.046;2023-09-19T02:30:32;99602.22;;;19.81;100.00
46347;BME280;32057;47.830;19.046;2023-09-19T02:32:58;99610.19;;;19.80;100.00
46347;BME280;32057;47.830;19.046;2023-09-19T02:35:27;99602.97;;;19.85;100.00
46347;BME280;32057;47.830;19.046;2023-09-19T02:37:53;99614.97;;;19.65;100.00
46347;BME280;32057;47.830;19.046;2023-09-19T02:40:18;99597.53;;;19.60;100.00
46347;BME280;32057;47.830;19.046;2023-09-19T02:42:54;99610.56;;;19.64;100.00
46347;BME280;32057;47.830;19.046;2023-09-19T02:45:22;99605.47;;;19.58;100.00
46347;BME280;32057;47.830;19.046;2023-09-19T02:47:48;99607.97;;;19.63;100.00
46347;BME280;32057;47.830;19.046;2023-09-19T02:50:16;99621.25;;;19.61;100.00
46347;BME280;32057;47.830;19.046;2023-09-19T02:52:46;99630.16;;;19.57;100.00
46347;BME280;32057;47.830;19.046;2023-09-19T02:55:15;99623.06;;;19.59;100.00
46347;BME280;32057;47.830;19.046;2023-09-19T02:57:50;99623.81;;;19.63;100.00
46347;BME280;32057;47.830;19.046;2023-09-19T03:00:17;99622.97;;;19.62;100.00
46347;BME280;32057;47.830;19.046;2023-09-19T03:02:52;99618.44;;;19.67;100.00
46347;BME280;32057;47.830;19.046;2023-09-19T03:05:18;99610.41;;;19.72;100.00
46347;BME280;32057;47.830;19.046;2023-09-19T03:07:44;99609.78;;;19.61;100.00
46347;BME280;32057;47.830;19.046;2023-09-19T03:10:11;99598.47;;;19.57;100.00
46347;BME280;32057;47.830;19.046;2023-09-19T03:12:36;99599.19;;;19.62;100.00
46347;BME280;32057;47.830;19.046;2023-09-19T03:15:02;99586.94;;;19.61;100.00
46347;BME280;32057;47.830;19.046;2023-09-19T03:17:29;99576.38;;;19.61;100.00
46347;BME280;32057;47.830;19.046;2023-09-19T03:19:55;99579.94;;;19.59;100.00
46347;BME280;32057;47.830;19.046;2023-09-19T03:22:20;99573.81;;;19.58;100.00
46347;BME280;32057;47.830;19.046;2023-09-19T03:24:46;99570.28;;;19.59;100.00
46347;BME280;32057;47.830;19.046;2023-09-19T03:27:12;99571.13;;;19.60;100.00
46347;BME280;32057;47.830;19.046;2023-09-19T03:29:39;99580.09;;;19.54;100.00
46347;BME280;32057;47.830;19.046;2023-09-19T03:32:04;99589.66;;;19.58;100.00
46347;BME280;32057;47.830;19.046;2023-09-19T03:34:30;99601.94;;;19.59;100.00
46347;BME280;32057;47.830;19.046;2023-09-19T03:36:55;99607.16;;;19.61;100.00
46347;BME280;32057;47.830;19.046;2023-09-19T03:39:21;99598.25;;;19.65;100.00
46347;BME280;32057;47.830;19.046;2023-09-19T03:41:46;99605.78;;;19.47;100.00
46347;BME280;32057;47.830;19.046;2023-09-19T03:44:12;99609.47;;;19.42;100.00
46347;BME280;32057;47.830;19.046;2023-09-19T03:46:37;99616.50;;;19.41;100.00
46347;BME280;32057;47.830;19.046;2023-09-19T03:49:04;99613.75;;;19.46;100.00
46347;BME280;32057;47.830;19.046;2023-09-19T03:51:29;99615.59;;;19.42;100.00
46347;BME280;32057;47.830;19.046;2023-09-19T03:53:55;99607.63;;;19.44;100.00
46347;BME280;32057;47.830;19.046;2023-09-19T03:56:21;99613.56;;;19.52;100.00
46347;BME280;32057;47.830;19.046;2023-09-19T03:58:46;99622.97;;;19.62;100.00
46347;BME280;32057;47.830;19.046;2023-09-19T04:01:12;99624.69;;;19.63;100.00
46347;BME280;32057;47.830;19.046;2023-09-19T04:03:38;99626.25;;;19.70;100.00
46347;BME280;32057;47.830;19.046;2023-09-19T04:06:16;99635.00;;;19.73;100.00
46347;BME280;32057;47.830;19.046;2023-09-19T04:08:43;99638.28;;;19.81;100.00
46347;BME280;32057;47.830;19.046;2023-09-19T04:11:09;99640.91;;;19.82;100.00
46347;BME280;32057;47.830;19.046;2023-09-19T04:13:35;99637.38;;;19.83;100.00
46347;BME280;32057;47.830;19.046;2023-09-19T04:16:01;99639.88;;;19.88;100.00
46347;BME280;32057;47.830;19.046;2023-09-19T04:18:29;99652.16;;;19.89;100.00
46347;BME280;32057;47.830;19.046;2023-09-19T04:20:56;99645.97;;;19.90;100.00
46347;BME280;32057;47.830;19.046;2023-09-19T04:23:21;99651.25;;;19.90;100.00
46347;BME280;32057;47.830;19.046;2023-09-19T04:25:47;99650.34;;;19.91;100.00
46347;BME280;32057;47.830;19.046;2023-09-19T04:28:13;99653.88;;;19.90;100.00
46347;BME280;32057;47.830;19.046;2023-09-19T04:30:39;99661.72;;;19.93;100.00
46347;BME280;32057;47.830;19.046;2023-09-19T04:33:07;99661.81;;;19.90;100.00
46347;BME280;32057;47.830;19.046;2023-09-19T04:35:33;99665.44;;;19.86;100.00
46347;BME280;32057;47.830;19.046;2023-09-19T04:37:59;99666.50;;;19.79;100.00
46347;BME280;32057;47.830;19.046;2023-09-19T04:40:24;99664.88;;;19.75;100.00
46347;BME280;32057;47.830;19.046;2023-09-19T04:42:58;99667.56;;;19.73;100.00
46347;BME280;32057;47.830;19.046;2023-09-19T04:45:24;99679.88;;;19.73;100.00
46347;BME280;32057;47.830;19.046;2023-09-19T04:47:49;99690.50;;;19.71;100.00
46347;BME280;32057;47.830;19.046;2023-09-19T04:50:15;99693.16;;;19.69;100.00
46347;BME280;32057;47.830;19.046;2023-09-19T04:52:42;99692.34;;;19.67;100.00
46347;BME280;32057;47.830;19.046;2023-09-19T04:55:13;99696.19;;;19.54;100.00
46347;BME280;32057;47.830;19.046;2023-09-19T04:57:45;99699.81;;;19.50;100.00
46347;BME280;32057;47.830;19.046;2023-09-19T05:00:18;99707.22;;;19.37;100.00
46347;BME280;32057;47.830;19.046;2023-09-19T05:02:51;99706.47;;;19.30;100.00
46347;BME280;32057;47.830;19.046;2023-09-19T05:05:17;99711.13;;;19.21;100.00
46347;BME280;32057;47.830;19.046;2023-09-19T05:07:43;99715.63;;;19.17;100.00
46347;BME280;32057;47.830;19.046;2023-09-19T05:10:09;99719.19;;;19.15;100.00
46347;BME280;32057;47.830;19.046;2023-09-19T05:12:35;99721.13;;;19.08;100.00
46347;BME280;32057;47.830;19.046;2023-09-19T05:15:02;99724.72;;;19.04;100.00
46347;BME280;32057;47.830;19.046;2023-09-19T05:17:28;99723.91;;;19.02;100.00
46347;BME280;32057;47.830;19.046;2023-09-19T05:19:54;99721.44;;;18.94;100.00
46347;BME280;32057;47.830;19.046;2023-09-19T05:22:19;99727.59;;;18.93;100.00
46347;BME280;32057;47.830;19.046;2023-09-19T05:24:44;99728.56;;;18.90;100.00
46347;BME280;32057;47.830;19.046;2023-09-19T05:27:12;99729.66;;;18.80;100.00
46347;BME280;32057;47.830;19.046;2023-09-19T05:29:38;99742.00;;;18.77;100.00
46347;BME280;32057;47.830;19.046;2023-09-19T05:32:03;99740.28;;;18.77;100.00
46347;BME280;32057;47.830;19.046;2023-09-19T05:34:30;99735.88;;;18.76;100.00
46347;BME280;32057;47.830;19.046;2023-09-19T05:36:55;99743.00;;;18.71;100.00
46347;BME280;32057;47.830;19.046;2023-09-19T05:39:21;99746.63;;;18.67;100.00
46347;BME280;32057;47.830;19.046;2023-09-19T05:41:48;99743.09;;;18.68;100.00
46347;BME280;32057;47.830;19.046;2023-09-19T05:44:13;99741.34;;;18.67;100.00
46347;BME280;32057;47.830;19.046;2023-09-19T05:46:39;99740.50;;;18.66;100.00
46347;BME280;32057;47.830;19.046;2023-09-19T05:49:05;99739.63;;;18.66;100.00
46347;BME280;32057;47.830;19.046;2023-09-19T05:51:30;99739.75;;;18.61;100.00
46347;BME280;32057;47.830;19.046;2023-09-19T05:53:56;99734.50;;;18.60;100.00
46347;BME280;32057;47.830;19.046;2023-09-19T05:56:21;99727.69;;;18.49;100.00
46347;BME280;32057;47.830;19.046;2023-09-19T05:58:47;99735.78;;;18.42;100.00
46347;BME280;32057;47.830;19.046;2023-09-19T06:01:13;99729.69;;;18.38;100.00
46347;BME280;32057;47.830;19.046;2023-09-19T06:03:38;99733.28;;;18.34;100.00
46347;BME280;32057;47.830;19.046;2023-09-19T06:06:04;99729.00;;;18.28;100.00
46347;BME280;32057;47.830;19.046;2023-09-19T06:08:32;99737.75;;;18.30;100.00
46347;BME280;32057;47.830;19.046;2023-09-19T06:10:58;99733.44;;;18.28;100.00
46347;BME280;32057;47.830;19.046;2023-09-19T06:13:24;99739.56;;;18.27;100.00
46347;BME280;32057;47.830;19.046;2023-09-19T06:38:05;99748.94;;;17.98;100.00
46347;BME280;32057;47.830;19.046;2023-09-19T06:40:31;99750.59;;;18.04;100.00
46347;BME280;32057;47.830;19.046;2023-09-19T06:42:56;99760.31;;;18.00;100.00
46347;BME280;32057;47.830;19.046;2023-09-19T06:45:22;99756.88;;;17.95;100.00
46347;BME280;32057;47.830;19.046;2023-09-19T06:47:49;99763.88;;;17.96;100.00
46347;BME280;32057;47.830;19.046;2023-09-19T06:50:22;99768.19;;;18.00;100.00
46347;BME280;32057;47.830;19.046;2023-09-19T06:52:49;99764.72;;;18.00;100.00
46347;BME280;32057;47.830;19.046;2023-09-19T06:55:19;99774.31;;;18.02;100.00
46347;BME280;32057;47.830;19.046;2023-09-19T06:57:48;99775.09;;;18.07;100.00
46347;BME280;32057;47.830;19.046;2023-09-19T07:00:14;99785.06;;;17.90;100.00
46347;BME280;32057;47.830;19.046;2023-09-19T07:02:59;99790.34;;;17.88;100.00
46347;BME280;32057;47.830;19.046;2023-09-19T07:05:32;99791.19;;;17.90;100.00
46347;BME280;32057;47.830;19.046;2023-09-19T07:08:01;99799.03;;;17.94;100.00
46347;BME280;32057;47.830;19.046;2023-09-19T07:10:27;99811.50;;;17.84;100.00
46347;BME280;32057;47.830;19.046;2023-09-19T07:13:01;99817.72;;;17.77;100.00
46347;BME280;32057;47.830;19.046;2023-09-19T07:15:28;99817.00;;;17.68;100.00
46347;BME280;32057;47.830;19.046;2023-09-19T07:17:56;99822.25;;;17.68;100.00
46347;BME280;32057;47.830;19.046;2023-09-19T07:20:23;99817.06;;;17.65;100.00
46347;BME280;32057;47.830;19.046;2023-09-19T07:22:51;99820.47;;;17.69;100.00
46347;BME280;32057;47.830;19.046;2023-09-19T07:25:16;99811.72;;;17.70;100.00
46347;BME280;32057;47.830;19.046;2023-09-19T07:27:42;99816.88;;;17.75;100.00
46347;BME280;32057;47.830;19.046;2023-09-19T07:30:08;99814.16;;;17.79;100.00
46347;BME280;32057;47.830;19.046;2023-09-19T07:32:34;99818.38;;;17.91;100.00
46347;BME280;32057;47.830;19.046;2023-09-19T07:35:04;99818.38;;;17.91;100.00
46347;BME280;32057;47.830;19.046;2023-09-19T07:37:33;99819.28;;;17.90;100.00
46347;BME280;32057;47.830;19.046;2023-09-19T07:40:08;99818.25;;;17.97;100.00
46347;BME280;32057;47.830;19.046;2023-09-19T07:42:37;99820.00;;;17.98;100.00
46347;BME280;32057;47.830;19.046;2023-09-19T07:45:05;99816.47;;;17.99;100.00
46347;BME280;32057;47.830;19.046;2023-09-19T07:47:30;99822.50;;;18.06;100.00
46347;BME280;32057;47.830;19.046;2023-09-19T07:50:02;99832.19;;;18.04;100.00
46347;BME280;32057;47.830;19.046;2023-09-19T07:52:29;99825.13;;;18.07;100.00
46347;BME280;32057;47.830;19.046;2023-09-19T07:54:55;99844.53;;;18.00;100.00
46347;BME280;32057;47.830;19.046;2023-09-19T07:57:22;99841.03;;;18.01;100.00
46347;BME280;32057;47.830;19.046;2023-09-19T07:59:48;99837.72;;;17.90;100.00
46347;BME280;32057;47.830;19.046;2023-09-19T08:02:13;99844.63;;;17.96;100.00
46347;BME280;32057;47.830;19.046;2023-09-19T08:04:42;99834.06;;;17.97;100.00
46347;BME280;32057;47.830;19.046;2023-09-19T08:07:08;99849.00;;;17.97;100.00
46347;BME280;32057;47.830;19.046;2023-09-19T08:09:34;99847.31;;;17.92;100.00
46347;BME280;32057;47.830;19.046;2023-09-19T08:12:00;99850.88;;;17.90;100.00
46347;BME280;32057;47.830;19.046;2023-09-19T08:14:28;99854.38;;;17.90;100.00
46347;BME280;32057;47.830;19.046;2023-09-19T08:16:57;99869.22;;;17.95;100.00
46347;BME280;32057;47.830;19.046;2023-09-19T08:19:24;99868.34;;;17.94;100.00
46347;BME280;32057;47.830;19.046;2023-09-19T08:21:55;99866.47;;;18.01;100.00
46347;BME280;32057;47.830;19.046;2023-09-19T08:24:24;99869.13;;;17.99;100.00
46347;BME280;32057;47.830;19.046;2023-09-19T08:26:52;99868.25;;;18.00;100.00
46347;BME280;32057;47.830;19.046;2023-09-19T08:29:19;99863.78;;;18.04;100.00
46347;BME280;32057;47.830;19.046;2023-09-19T08:31:45;99870.00;;;18.01;100.00
46347;BME280;32057;47.830;19.046;2023-09-19T08:34:11;99871.69;;;18.04;100.00
46347;BME280;32057;47.830;19.046;2023-09-19T08:36:37;99874.31;;;18.05;100.00
46347;BME280;32057;47.830;19.046;2023-09-19T08:39:03;99883.03;;;18.07;100.00
46347;BME280;32057;47.830;19.046;2023-09-19T08:41:29;99885.69;;;18.07;100.00
46347;BME280;32057;47.830;19.046;2023-09-19T08:43:58;99890.06;;;18.07;100.00
46347;BME280;32057;47.830;19.046;2023-09-19T08:46:30;99894.47;;;18.06;100.00
46347;BME280;32057;47.830;19.046;2023-09-19T08:49:08;99896.22;;;18.07;100.00
46347;BME280;32057;47.830;19.046;2023-09-19T08:51:43;99898.84;;;18.07;100.00
46347;BME280;32057;47.830;19.046;2023-09-19T08:54:21;99897.06;;;18.09;100.00
46347;BME280;32057;47.830;19.046;2023-09-19T08:56:50;99900.47;;;18.13;100.00
46347;BME280;32057;47.830;19.046;2023-09-19T08:59:15;99908.25;;;18.19;100.00
46347;BME280;32057;47.830;19.046;2023-09-19T09:01:42;99917.94;;;18.19;100.00
46347;BME280;32057;47.830;19.046;2023-09-19T09:04:09;99921.53;;;18.15;100.00
46347;BME280;32057;47.830;19.046;2023-09-19T09:06:38;99917.22;;;18.10;100.00
46347;BME280;32057;47.830;19.046;2023-09-19T09:09:04;99930.34;;;18.12;100.00
46347;BME280;32057;47.830;19.046;2023-09-19T09:11:32;99932.13;;;18.11;100.00
46347;BME280;32057;47.830;19.046;2023-09-19T09:13:58;99936.50;;;18.11;100.00
46347;BME280;32057;47.830;19.046;2023-09-19T09:16:24;99928.72;;;18.05;100.00
46347;BME280;32057;47.830;19.046;2023-09-19T09:18:51;99931.44;;;18.00;100.00
46347;BME280;32057;47.830;19.046;2023-09-19T09:21:20;99938.38;;;18.04;100.00
46347;BME280;32057;47.830;19.046;2023-09-19T09:23:47;99926.06;;;18.06;100.00
46347;BME280;32057;47.830;19.046;2023-09-19T09:26:12;99933.03;;;18.09;100.00
46347;BME280;32057;47.830;19.046;2023-09-19T09:28:44;99929.44;;;18.13;100.00
46347;BME280;32057;47.830;19.046;2023-09-19T09:31:22;99928.53;;;18.16;100.00
46347;BME280;32057;47.830;19.046;2023-09-19T09:33:55;99924.22;;;18.11;100.00
46347;BME280;32057;47.830;19.046;2023-09-19T09:36:38;99922.47;;;18.10;100.00
46347;BME280;32057;47.830;19.046;2023-09-19T09:39:04;99917.19;;;18.12;100.00
46347;BME280;32057;47.830;19.046;2023-09-19T09:41:42;99918.97;;;18.10;100.00
46347;BME280;32057;47.830;19.046;2023-09-19T09:44:16;99914.66;;;18.06;100.00
46347;BME280;32057;47.830;19.046;2023-09-19T09:46:52;99906.81;;;18.03;100.00
46347;BME280;32057;47.830;19.046;2023-09-19T09:49:28;99915.53;;;18.06;100.00
46347;BME280;32057;47.830;19.046;2023-09-19T09:52:12;99905.84;;;18.08;100.00
46347;BME280;32057;47.830;19.046;2023-09-19T09:55:18;99926.00;;;18.09;100.00
46347;BME280;32057;47.830;19.046;2023-09-19T09:58:27;99939.13;;;18.13;100.00
46347;BME280;32057;47.830;19.046;2023-09-19T10:00:56;99944.41;;;18.11;100.00
46347;BME280;32057;47.830;19.046;2023-09-19T10:04:03;99932.88;;;18.18;100.00
46347;BME280;32057;47.830;19.046;2023-09-19T10:06:45;99928.25;;;18.31;100.00
46347;BME280;32057;47.830;19.046;2023-09-19T10:15:56;99915.97;;;18.80;100.00
46347;BME280;32057;47.830;19.046;2023-09-19T10:18:55;99910.91;;;19.11;100.00
46347;BME280;32057;47.830;19.046;2023-09-19T10:21:23;99910.00;;;19.14;100.00
46347;BME280;32057;47.830;19.046;2023-09-19T10:23:50;99909.84;;;19.20;100.00
46347;BME280;32057;47.830;19.046;2023-09-19T10:26:17;99901.97;;;19.18;100.00
46347;BME280;32057;47.830;19.046;2023-09-19T10:28:46;99898.44;;;19.19;100.00
46347;BME280;32057;47.830;19.046;2023-09-19T10:31:18;99901.16;;;19.15;100.00
46347;BME280;32057;47.830;19.046;2023-09-19T10:33:45;99899.44;;;19.14;100.00
46347;BME280;32057;47.830;19.046;2023-09-19T10:36:15;99906.78;;;18.99;100.00
46347;BME280;32057;47.830;19.046;2023-09-19T10:38:43;99901.44;;;19.02;100.00
46347;BME280;32057;47.830;19.046;2023-09-19T10:41:10;99912.13;;;18.96;100.00
46347;BME280;32057;47.830;19.046;2023-09-19T10:43:38;99915.44;;;19.04;100.00
46347;BME280;32057;47.830;19.046;2023-09-19T10:46:08;99912.75;;;19.07;100.00
46347;BME280;32057;47.830;19.046;2023-09-19T10:48:36;99912.69;;;19.10;100.00
46347;BME280;32057;47.830;19.046;2023-09-19T10:53:41;99919.66;;;19.13;100.00
46347;BME280;32057;47.830;19.046;2023-09-19T10:56:08;99928.53;;;19.09;100.00
46347;BME280;32057;47.830;19.046;2023-09-19T10:58:40;99932.13;;;19.05;100.00
46347;BME280;32057;47.830;19.046;2023-09-19T11:01:10;99923.50;;;18.97;100.00
46347;BME280;32057;47.830;19.046;2023-09-19T11:03:43;99935.69;;;19.04;100.00
46347;BME280;32057;47.830;19.046;2023-09-19T11:08:55;99946.25;;;19.04;100.00
46347;BME280;32057;47.830;19.046;2023-09-19T11:11:45;99958.47;;;19.06;100.00
46347;BME280;32057;47.830;19.046;2023-09-19T11:17:33;99960.09;;;19.15;100.00
46347;BME280;32057;47.830;19.046;2023-09-19T11:30:48;99959.94;;;19.21;100.00
46347;BME280;32057;47.830;19.046;2023-09-19T11:33:26;99965.16;;;19.24;100.00
46347;BME280;32057;47.830;19.046;2023-09-19T11:36:08;99964.09;;;19.33;100.00
46347;BME280;32057;47.830;19.046;2023-09-19T11:43:46;99971.69;;;19.87;100.00
46347;BME280;32057;47.830;19.046;2023-09-19T11:46:12;99979.06;;;20.10;100.00
46347;BME280;32057;47.830;19.046;2023-09-19T11:48:42;99977.91;;;20.21;100.00
46347;BME280;32057;47.830;19.046;2023-09-19T11:51:14;99979.84;;;20.14;100.00
46347;BME280;32057;47.830;19.046;2023-09-19T11:53:48;99977.91;;;20.21;100.00
46347;BME280;32057;47.830;19.046;2023-09-19T11:56:19;99971.59;;;20.28;100.00
46347;BME280;32057;47.830;19.046;2023-09-19T11:58:46;99977.50;;;20.38;100.00
46347;BME280;32057;47.830;19.046;2023-09-19T12:01:16;99985.16;;;20.48;100.00
46347;BME280;32057;47.830;19.046;2023-09-19T12:03:47;99980.88;;;20.43;100.00
46347;BME280;32057;47.830;19.046;2023-09-19T12:06:15;99981.66;;;20.48;100.00
46347;BME280;32057;47.830;19.046;2023-09-19T12:08:44;99976.91;;;20.61;100.00
46347;BME280;32057;47.830;19.046;2023-09-19T12:11:14;99977.16;;;20.84;100.00
46347;BME280;32057;47.830;19.046;2023-09-19T12:13:47;99979.97;;;21.11;100.00
46347;BME280;32057;47.830;19.046;2023-09-19T12:16:20;99975.09;;;20.96;100.00
46347;BME280;32057;47.830;19.046;2023-09-19T12:18:50;99975.09;;;20.96;100.00
46347;BME280;32057;47.830;19.046;2023-09-19T12:21:26;99973.06;;;21.05;100.00
46347;BME280;32057;47.830;19.046;2023-09-19T12:24:19;99967.16;;;20.96;100.00
46347;BME280;32057;47.830;19.046;2023-09-19T12:26:46;99962.03;;;20.91;100.00
46347;BME280;32057;47.830;19.046;2023-09-19T12:29:21;99960.88;;;21.00;100.00
46347;BME280;32057;47.830;19.046;2023-09-19T12:31:54;99965.50;;;20.93;100.00
46347;BME280;32057;47.830;19.046;2023-09-19T12:34:24;99965.03;;;21.08;100.00
46347;BME280;32057;47.830;19.046;2023-09-19T12:39:43;99966.34;;;21.25;100.00
46347;BME280;32057;47.830;19.046;2023-09-19T12:42:14;99967.47;;;21.16;100.00
46347;BME280;32057;47.830;19.046;2023-09-19T12:44:46;99959.91;;;21.02;100.00
46347;BME280;32057;47.830;19.046;2023-09-19T12:47:19;99961.88;;;20.96;100.00
46347;BME280;32057;47.830;19.046;2023-09-19T12:50:13;99968.81;;;21.00;100.00
46347;BME280;32057;47.830;19.046;2023-09-19T12:52:47;99964.69;;;20.89;100.00
46347;BME280;32057;47.830;19.046;2023-09-19T12:55:26;99965.41;;;20.95;100.00
46347;BME280;32057;47.830;19.046;2023-09-19T12:58:13;99973.53;;;20.88;100.00
46347;BME280;32057;47.830;19.046;2023-09-19T13:00:44;99976.81;;;20.97;100.00
46347;BME280;32057;47.830;19.046;2023-09-19T13:03:29;99973.78;;;21.11;100.00
46347;BME280;32057;47.830;19.046;2023-09-19T13:06:03;99969.13;;;21.50;100.00
46347;BME280;32057;47.830;19.046;2023-09-19T13:08:34;99956.78;;;21.79;100.00
46347;BME280;32057;47.830;19.046;2023-09-19T13:11:19;99958.22;;;22.16;100.00
46347;BME280;32057;47.830;19.046;2023-09-19T13:16:16;99947.31;;;22.52;100.00
46347;BME280;32057;47.830;19.046;2023-09-19T13:18:49;99956.91;;;22.56;100.00
46347;BME280;32057;47.830;19.046;2023-09-19T13:21:17;99964.63;;;22.62;100.00
46347;BME280;32057;47.830;19.046;2023-09-19T13:23:53;99969.94;;;22.62;100.00
46347;BME280;32057;47.830;19.046;2023-09-19T13:26:24;99959.03;;;22.44;100.00
46347;BME280;32057;47.830;19.046;2023-09-19T13:28:50;99961.44;;;22.77;100.00
46347;BME280;32057;47.830;19.046;2023-09-19T13:31:16;99969.38;;;22.52;100.00
46347;BME280;32057;47.830;19.046;2023-09-19T13:33:45;99967.28;;;22.37;100.00
46347;BME280;32057;47.830;19.046;2023-09-19T13:36:11;99968.78;;;22.17;100.00
46347;BME280;32057;47.830;19.046;2023-09-19T13:38:39;99972.53;;;21.83;100.00
46347;BME280;32057;47.830;19.046;2023-09-19T13:41:05;99960.25;;;22.07;100.00
46347;BME280;32057;47.830;19.046;2023-09-19T13:43:31;99957.88;;;22.26;100.00
46347;BME280;32057;47.830;19.046;2023-09-19T13:45:57;99967.31;;;22.35;100.00
46347;BME280;32057;47.830;19.046;2023-09-19T13:48:23;99975.38;;;22.59;100.00
46347;BME280;32057;47.830;19.046;2023-09-19T13:50:49;99968.63;;;22.48;100.00
46347;BME280;32057;47.830;19.046;2023-09-19T13:53:15;99980.19;;;22.46;100.00
46347;BME280;32057;47.830;19.046;2023-09-19T13:55:42;99981.41;;;22.37;100.00
46347;BME280;32057;47.830;19.046;2023-09-19T13:58:07;99977.88;;;22.62;100.00
46347;BME280;32057;47.830;19.046;2023-09-19T14:00:36;99985.41;;;22.74;100.00
46347;BME280;32057;47.830;19.046;2023-09-19T14:03:01;99997.31;;;22.87;100.00